createdAt,value
2018-07-22T00:00:46.728Z,100163
2018-07-22T00:03:16.309Z,100160
2018-07-22T00:05:45.161Z,100168
2018-07-22T00:08:14.010Z,100169
2018-07-22T00:10:43.612Z,100170
2018-07-22T00:13:12.456Z,100168
2018-07-22T00:15:41.314Z,100164
2018-07-22T00:18:10.172Z,100159
2018-07-22T00:20:39.036Z,100159
2018-07-22T00:23:07.891Z,100160
2018-07-22T00:25:36.732Z,100148
2018-07-22T00:28:05.578Z,100147
2018-07-22T00:30:34.430Z,100151
2018-07-22T00:33:04.013Z,100146
2018-07-22T00:38:02.729Z,100150
2018-07-22T00:40:32.304Z,100151
2018-07-22T00:43:01.162Z,100145
2018-07-22T00:45:30.008Z,100145
2018-07-22T00:47:59.589Z,100147
2018-07-22T00:50:28.441Z,100143
2018-07-22T00:52:57.285Z,100144
2018-07-22T00:55:26.135Z,100147
2018-07-22T00:57:54.974Z,100149
2018-07-22T01:00:23.818Z,100147
2018-07-22T01:02:52.657Z,100149
2018-07-22T01:05:21.507Z,100150
2018-07-22T01:07:50.351Z,100154
2018-07-22T01:10:19.195Z,100149
2018-07-22T01:12:48.040Z,100151
2018-07-22T01:15:16.887Z,100151
2018-07-22T01:17:45.729Z,100132
2018-07-22T01:20:14.565Z,100136
2018-07-22T01:22:43.414Z,100133
2018-07-22T01:25:12.254Z,100130
2018-07-22T01:27:41.850Z,100137
2018-07-22T01:30:10.692Z,100133
2018-07-22T01:32:39.539Z,100139
2018-07-22T01:35:08.393Z,100140
2018-07-22T01:37:37.230Z,100142
2018-07-22T01:40:06.077Z,100151
2018-07-22T01:42:34.920Z,100143
2018-07-22T01:45:03.766Z,100154
2018-07-22T01:47:32.603Z,100149
2018-07-22T01:50:01.454Z,100148
2018-07-22T01:52:30.301Z,100159
2018-07-22T01:54:59.141Z,100153
2018-07-22T01:57:28.722Z,100158
2018-07-22T01:59:57.575Z,100155
2018-07-22T02:02:26.414Z,100157
2018-07-22T02:04:55.268Z,100153
2018-07-22T02:07:24.107Z,100163
2018-07-22T02:09:52.947Z,100160
2018-07-22T02:12:21.790Z,100160
2018-07-22T02:14:51.372Z,100159
2018-07-22T02:17:20.215Z,100165
2018-07-22T02:19:49.063Z,100164
2018-07-22T02:22:17.908Z,100158
2018-07-22T02:24:46.771Z,100161
2018-07-22T02:27:15.604Z,100162
2018-07-22T02:29:44.444Z,100155
2018-07-22T02:32:13.293Z,100157
2018-07-22T02:34:42.141Z,100154
2018-07-22T02:37:10.986Z,100151
2018-07-22T02:39:40.428Z,100157
2018-07-22T02:42:09.270Z,100154
2018-07-22T02:44:38.112Z,100154
2018-07-22T02:47:06.954Z,100151
2018-07-22T02:49:35.799Z,100148
2018-07-22T02:52:04.643Z,100148
2018-07-22T02:54:34.245Z,100148
2018-07-22T02:57:03.087Z,100147
2018-07-22T02:59:31.925Z,100152
2018-07-22T03:02:00.770Z,100146
2018-07-22T03:04:29.612Z,100140
2018-07-22T03:06:59.196Z,100143
2018-07-22T03:09:28.038Z,100147
2018-07-22T03:11:56.873Z,100150
2018-07-22T03:14:25.715Z,100154
2018-07-22T03:16:54.557Z,100153
2018-07-22T03:19:23.407Z,100153
2018-07-22T03:21:52.251Z,100150
2018-07-22T03:24:21.104Z,100151
2018-07-22T03:29:11.136Z,100155
2018-07-22T03:31:40.733Z,100160
2018-07-22T03:34:09.568Z,100154
2018-07-22T03:36:38.410Z,100156
2018-07-22T03:39:07.260Z,100162
2018-07-22T03:41:36.096Z,100157
2018-07-22T03:44:05.688Z,100159
2018-07-22T03:46:34.532Z,100152
2018-07-22T03:49:03.373Z,100159
2018-07-22T03:51:32.210Z,100156
2018-07-22T03:54:01.055Z,100160
2018-07-22T03:56:29.904Z,100165
2018-07-22T03:58:58.742Z,100162
2018-07-22T04:01:28.337Z,100169
2018-07-22T04:03:57.215Z,100166
2018-07-22T04:06:26.060Z,100164
2018-07-22T04:08:54.892Z,100164
2018-07-22T04:11:23.742Z,100167
2018-07-22T04:13:52.620Z,100171
2018-07-22T04:16:22.208Z,100174
2018-07-22T04:18:51.053Z,100174
2018-07-22T04:21:19.907Z,100175
2018-07-22T04:23:48.766Z,100173
2018-07-22T04:26:17.618Z,100171
2018-07-22T04:28:46.459Z,100169
2018-07-22T04:31:15.300Z,100181
2018-07-22T04:33:44.173Z,100182
2018-07-22T04:36:13.016Z,100183
2018-07-22T04:38:41.875Z,100181
2018-07-22T04:41:10.723Z,100190
2018-07-22T04:43:39.559Z,100186
2018-07-22T04:46:08.394Z,100187
2018-07-22T04:48:37.232Z,100187
2018-07-22T04:51:06.070Z,100193
2018-07-22T04:53:34.945Z,100192
2018-07-22T04:56:04.491Z,100196
2018-07-22T04:58:33.329Z,100197
2018-07-22T05:01:02.182Z,100200
2018-07-22T05:03:31.032Z,100205
2018-07-22T05:05:59.900Z,100202
2018-07-22T05:08:28.754Z,100204
2018-07-22T05:10:57.599Z,100210
2018-07-22T05:13:26.439Z,100204
2018-07-22T05:15:55.290Z,100209
2018-07-22T05:18:24.136Z,100209
2018-07-22T05:20:53.001Z,100210
2018-07-22T05:23:21.847Z,100212
2018-07-22T05:25:50.698Z,100221
2018-07-22T05:28:19.593Z,100221
2018-07-22T05:30:48.383Z,100224
2018-07-22T05:33:17.220Z,100224
2018-07-22T05:35:46.110Z,100221
2018-07-22T05:38:14.901Z,100233
2018-07-22T05:40:43.754Z,100229
2018-07-22T05:43:12.592Z,100228
2018-07-22T05:45:41.443Z,100230
2018-07-22T05:48:11.015Z,100227
2018-07-22T05:50:39.860Z,100232
2018-07-22T05:53:10.110Z,100230
2018-07-22T05:55:38.959Z,100235
2018-07-22T05:58:07.843Z,100244
2018-07-22T06:00:36.646Z,100242
2018-07-22T06:03:05.545Z,100241
2018-07-22T06:05:34.337Z,100244
2018-07-22T06:08:03.187Z,100237
2018-07-22T06:10:32.031Z,100246
2018-07-22T06:13:00.877Z,100249
2018-07-22T06:15:30.467Z,100252
2018-07-22T06:17:59.308Z,100250
2018-07-22T06:20:28.180Z,100254
2018-07-22T06:22:57.039Z,100259
2018-07-22T06:25:25.879Z,100277
2018-07-22T06:27:54.723Z,100260
2018-07-22T06:30:23.582Z,100261
2018-07-22T06:32:52.420Z,100260
2018-07-22T06:35:21.315Z,100271
2018-07-22T06:37:50.116Z,100265
2018-07-22T06:40:18.974Z,100264
2018-07-22T06:42:48.564Z,100268
2018-07-22T06:45:17.429Z,100269
2018-07-22T06:47:46.284Z,100275
2018-07-22T06:50:15.123Z,100276
2018-07-22T06:52:43.960Z,100274
2018-07-22T06:55:13.573Z,100273
2018-07-22T06:57:43.160Z,100265
2018-07-22T07:00:12.025Z,100271
2018-07-22T07:02:40.868Z,100269
2018-07-22T07:05:09.746Z,100267
2018-07-22T07:07:38.567Z,100260
2018-07-22T07:10:07.431Z,100269
2018-07-22T07:12:36.288Z,100265
2018-07-22T07:15:05.140Z,100284
2018-07-22T07:17:33.996Z,100276
2018-07-22T07:20:03.593Z,100279
2018-07-22T07:22:32.441Z,100276
2018-07-22T07:25:01.281Z,100281
2018-07-22T07:27:30.878Z,100284
2018-07-22T07:29:59.719Z,100274
2018-07-22T07:32:28.565Z,100280
2018-07-22T07:34:58.162Z,100284
2018-07-22T07:37:27.010Z,100281
2018-07-22T07:39:55.857Z,100283
2018-07-22T07:42:24.801Z,100281
2018-07-22T07:44:53.609Z,100288
2018-07-22T07:47:22.443Z,100286
2018-07-22T07:49:51.293Z,100290
2018-07-22T07:52:20.148Z,100290
2018-07-22T07:54:48.996Z,100288
2018-07-22T07:57:17.848Z,100285
2018-07-22T07:59:46.696Z,100288
2018-07-22T08:02:15.546Z,100292
2018-07-22T08:04:44.399Z,100292
2018-07-22T08:07:13.247Z,100292
2018-07-22T08:09:42.097Z,100292
2018-07-22T08:12:10.946Z,100298
2018-07-22T08:14:39.793Z,100303
2018-07-22T08:17:08.637Z,100288
2018-07-22T08:19:37.486Z,100305
2018-07-22T08:22:07.097Z,100299
2018-07-22T08:24:35.920Z,100301
2018-07-22T08:27:04.770Z,100297
2018-07-22T08:29:33.622Z,100303
2018-07-22T08:32:02.488Z,100289
2018-07-22T08:34:31.346Z,100304
2018-07-22T08:37:00.768Z,100301
2018-07-22T08:39:30.356Z,100304
2018-07-22T08:41:59.215Z,100303
2018-07-22T08:44:28.064Z,100300
2018-07-22T08:46:56.917Z,100293
2018-07-22T08:49:25.759Z,100291
2018-07-22T08:51:54.599Z,100293
2018-07-22T08:54:24.047Z,100296
2018-07-22T08:56:52.909Z,100302
2018-07-22T08:59:22.495Z,100297
2018-07-22T09:01:51.365Z,100306
2018-07-22T09:04:20.226Z,100301
2018-07-22T09:06:49.068Z,100303
2018-07-22T09:09:17.927Z,100302
2018-07-22T09:11:46.780Z,100302
2018-07-22T09:14:15.629Z,100303
2018-07-22T09:16:44.504Z,100316
2018-07-22T09:19:13.347Z,100307
2018-07-22T09:21:42.196Z,100307
2018-07-22T09:24:11.057Z,100304
2018-07-22T09:26:39.897Z,100308
2018-07-22T09:29:09.499Z,100311
2018-07-22T09:31:39.092Z,100307
2018-07-22T09:34:07.954Z,100312
2018-07-22T09:36:36.861Z,100313
2018-07-22T09:39:05.689Z,100313
2018-07-22T09:41:34.531Z,100315
2018-07-22T09:44:03.393Z,100321
2018-07-22T09:46:32.247Z,100323
2018-07-22T09:49:01.868Z,100323
2018-07-22T09:51:30.678Z,100320
2018-07-22T09:53:59.521Z,100321
2018-07-22T09:56:28.363Z,100322
2018-07-22T09:58:57.220Z,100318
2018-07-22T10:01:26.070Z,100322
2018-07-22T10:03:54.925Z,100322
2018-07-22T10:06:23.776Z,100317
2018-07-22T10:08:53.373Z,100320
2018-07-22T10:11:22.239Z,100323
2018-07-22T10:13:51.092Z,100314
2018-07-22T10:16:19.933Z,100310
2018-07-22T10:18:48.795Z,100312
2018-07-22T10:21:17.631Z,100317
2018-07-22T10:23:47.223Z,100313
2018-07-22T10:26:16.086Z,100304
2018-07-22T10:28:44.986Z,100306
2018-07-22T10:31:13.805Z,100301
2018-07-22T10:33:42.641Z,100303
2018-07-22T10:36:11.489Z,100306
2018-07-22T10:38:41.076Z,100295
2018-07-22T10:41:10.060Z,100296
2018-07-22T10:43:38.790Z,100303
2018-07-22T10:46:07.633Z,100294
2018-07-22T10:48:36.495Z,100299
2018-07-22T10:51:05.400Z,100295
2018-07-22T10:53:34.203Z,100294
2018-07-22T10:56:03.056Z,100287
2018-07-22T10:58:31.905Z,100295
2018-07-22T11:01:01.508Z,100294
2018-07-22T11:03:30.350Z,100285
2018-07-22T11:05:59.201Z,100291
2018-07-22T11:08:28.051Z,100285
2018-07-22T11:10:56.898Z,100284
2018-07-22T11:13:25.754Z,100293
2018-07-22T11:15:54.610Z,100282
2018-07-22T11:18:23.467Z,100282
2018-07-22T11:20:52.341Z,100286
2018-07-22T11:23:21.170Z,100288
2018-07-22T11:25:50.025Z,100275
2018-07-22T11:28:18.878Z,100284
2018-07-22T11:30:47.727Z,100283
2018-07-22T11:33:16.572Z,100285
2018-07-22T11:35:46.165Z,100275
2018-07-22T11:38:15.008Z,100275
2018-07-22T11:40:43.852Z,100284
2018-07-22T11:43:13.485Z,100271
2018-07-22T11:45:42.338Z,100271
2018-07-22T11:48:11.186Z,100264
2018-07-22T11:50:40.045Z,100272
2018-07-22T11:53:08.891Z,100266
2018-07-22T11:55:37.736Z,100268
2018-07-22T11:58:06.590Z,100265
2018-07-22T12:00:35.439Z,100274
2018-07-22T12:03:04.292Z,100273
2018-07-22T12:05:33.132Z,100261
2018-07-22T12:08:01.977Z,100258
2018-07-22T12:10:31.572Z,100258
2018-07-22T12:13:01.172Z,100253
2018-07-22T12:15:30.030Z,100249
2018-07-22T12:17:58.904Z,100243
2018-07-22T12:20:27.758Z,100248
2018-07-22T12:22:56.622Z,100245
2018-07-22T12:25:25.474Z,100248
2018-07-22T12:27:54.467Z,100243
2018-07-22T12:30:23.316Z,100244
2018-07-22T12:32:52.910Z,100241
2018-07-22T12:35:21.786Z,100235
2018-07-22T12:37:50.594Z,100227
2018-07-22T12:40:19.442Z,100227
2018-07-22T12:42:48.283Z,100225
2018-07-22T12:45:17.141Z,100216
2018-07-22T12:47:45.983Z,100219
2018-07-22T12:50:14.880Z,100209
2018-07-22T12:52:43.681Z,100209
2018-07-22T12:55:12.531Z,100209
2018-07-22T12:57:41.393Z,100206
2018-07-22T13:00:10.239Z,100215
2018-07-22T13:02:39.101Z,100200
2018-07-22T13:05:08.716Z,100214
2018-07-22T13:07:38.307Z,100205
2018-07-22T13:10:07.164Z,100215
2018-07-22T13:12:36.021Z,100207
2018-07-22T13:15:04.873Z,100215
2018-07-22T13:17:33.740Z,100209
2018-07-22T13:20:02.604Z,100214
2018-07-22T13:22:31.444Z,100211
2018-07-22T13:25:00.305Z,100209
2018-07-22T13:27:29.170Z,100206
2018-07-22T13:29:58.001Z,100205
2018-07-22T13:32:26.847Z,100206
2018-07-22T13:34:55.689Z,100202
2018-07-22T13:37:24.534Z,100201
2018-07-22T13:39:53.386Z,100204
2018-07-22T13:42:22.984Z,100197
2018-07-22T13:44:51.835Z,100202
2018-07-22T13:47:20.689Z,100200
2018-07-22T13:49:49.541Z,100197
2018-07-22T13:52:18.381Z,100198
2018-07-22T13:54:47.225Z,100195
2018-07-22T13:57:16.063Z,100187
2018-07-22T13:59:45.670Z,100189
2018-07-22T14:02:15.260Z,100185
2018-07-22T14:04:44.852Z,100181
2018-07-22T14:07:13.742Z,100178
2018-07-22T14:09:42.550Z,100183
2018-07-22T14:12:11.400Z,100186
2018-07-22T14:14:40.288Z,100179
2018-07-22T14:17:09.888Z,100175
2018-07-22T14:19:38.744Z,100170
2018-07-22T14:22:07.598Z,100161
2018-07-22T14:24:37.183Z,100174
2018-07-22T14:27:06.024Z,100171
2018-07-22T14:29:34.882Z,100179
2018-07-22T14:32:03.734Z,100184
2018-07-22T14:34:32.566Z,100178
2018-07-22T14:37:02.160Z,100173
2018-07-22T14:39:31.005Z,100177
2018-07-22T14:41:59.848Z,100172
2018-07-22T14:44:29.423Z,100184
2018-07-22T14:46:58.291Z,100187
2018-07-22T14:49:27.118Z,100199
2018-07-22T14:51:55.952Z,100224
2018-07-22T14:54:25.536Z,100216
2018-07-22T14:56:54.367Z,100229
2018-07-22T14:59:23.211Z,100238
2018-07-22T15:01:52.056Z,100257
2018-07-22T15:04:20.907Z,100263
2018-07-22T15:06:50.497Z,100284
2018-07-22T15:09:19.362Z,100318
2018-07-22T15:11:48.202Z,100335
2018-07-22T15:14:17.772Z,100333
2018-07-22T15:16:46.617Z,100320
2018-07-22T15:19:15.480Z,100312
2018-07-22T15:21:44.320Z,100305
2018-07-22T15:24:13.159Z,100312
2018-07-22T15:26:42.751Z,100308
2018-07-22T15:29:11.646Z,100305
2018-07-22T15:31:40.453Z,100293
2018-07-22T15:34:09.309Z,100298
2018-07-22T15:36:38.159Z,100297
2018-07-22T15:39:06.999Z,100300
2018-07-22T15:41:35.845Z,100306
2018-07-22T15:44:04.685Z,100312
2018-07-22T15:46:33.695Z,100311
2018-07-22T15:49:02.404Z,100322
2018-07-22T15:51:31.258Z,100316
2018-07-22T15:54:00.843Z,100303
2018-07-22T15:56:29.688Z,100300
2018-07-22T15:58:58.533Z,100296
2018-07-22T16:01:27.409Z,100294
2018-07-22T16:03:56.251Z,100297
2018-07-22T16:06:25.115Z,100295
2018-07-22T16:08:53.973Z,100291
2018-07-22T16:11:22.846Z,100282
2018-07-22T16:13:51.680Z,100272
2018-07-22T16:16:20.561Z,100267
2018-07-22T16:18:49.410Z,100262
2018-07-22T16:21:18.277Z,100256
2018-07-22T16:23:47.136Z,100253
2018-07-22T16:26:15.976Z,100250
2018-07-22T16:28:44.838Z,100249
2018-07-22T16:31:13.685Z,100245
2018-07-22T16:33:42.595Z,100249
2018-07-22T16:36:11.392Z,100243
2018-07-22T16:38:40.244Z,100248
2018-07-22T16:41:09.840Z,100244
2018-07-22T16:43:38.700Z,100251
2018-07-22T16:46:07.548Z,100252
2018-07-22T16:48:36.396Z,100255
2018-07-22T16:51:05.240Z,100260
2018-07-22T16:53:34.123Z,100260
2018-07-22T16:56:02.946Z,100267
2018-07-22T16:58:31.796Z,100274
2018-07-22T17:01:01.374Z,100268
2018-07-22T17:03:30.218Z,100283
2018-07-22T17:05:59.056Z,100281
2018-07-22T17:08:27.912Z,100285
2018-07-22T17:10:56.756Z,100283
2018-07-22T17:13:25.606Z,100293
2018-07-22T17:15:54.456Z,100279
2018-07-22T17:18:24.065Z,100279
2018-07-22T17:20:53.675Z,100284
2018-07-22T17:23:22.515Z,100281
2018-07-22T17:25:51.367Z,100281
2018-07-22T17:28:20.951Z,100277
2018-07-22T17:30:49.797Z,100278
2018-07-22T17:33:18.652Z,100273
2018-07-22T17:35:48.241Z,100274
2018-07-22T17:38:17.085Z,100275
2018-07-22T17:40:45.939Z,100286
2018-07-22T17:43:14.787Z,100285
2018-07-22T17:45:43.637Z,100289
2018-07-22T17:48:12.496Z,100290
2018-07-22T17:50:41.364Z,100298
2018-07-22T17:53:10.221Z,100293
2018-07-22T17:55:39.059Z,100296
2018-07-22T17:58:07.934Z,100304
2018-07-22T18:00:36.783Z,100299
2018-07-22T18:03:05.647Z,100309
2018-07-22T18:05:35.266Z,100310
2018-07-22T18:08:04.851Z,100300
2018-07-22T18:10:33.693Z,100309
2018-07-22T18:13:02.552Z,100316
2018-07-22T18:15:31.396Z,100316
2018-07-22T18:18:00.250Z,100312
2018-07-22T18:20:29.859Z,100309
2018-07-22T18:22:58.752Z,100320
2018-07-22T18:25:28.292Z,100325
2018-07-22T18:27:57.134Z,100319
2018-07-22T18:30:25.997Z,100325
2018-07-22T18:32:55.589Z,100336
2018-07-22T18:35:24.452Z,100334
2018-07-22T18:37:53.321Z,100333
2018-07-22T18:40:22.167Z,100336
2018-07-22T18:42:51.026Z,100337
2018-07-22T18:45:19.881Z,100342
2018-07-22T18:47:48.987Z,100336
2018-07-22T18:50:17.802Z,100330
2018-07-22T18:52:46.663Z,100331
2018-07-22T18:55:15.778Z,100330
2018-07-22T18:57:44.793Z,100331
2018-07-22T19:00:13.852Z,100333
2018-07-22T19:02:42.949Z,100339
2018-07-22T19:05:12.048Z,100341
2018-07-22T19:07:41.151Z,100348
2018-07-22T19:10:10.244Z,100349
2018-07-22T19:12:39.332Z,100349
2018-07-22T19:15:08.153Z,100352
2018-07-22T19:17:37.047Z,100358
2018-07-22T19:20:05.895Z,100360
2018-07-22T19:22:34.734Z,100361
2018-07-22T19:25:04.347Z,100361
2018-07-22T19:27:33.189Z,100361
2018-07-22T19:30:02.047Z,100368
2018-07-22T19:32:30.931Z,100370
2018-07-22T19:34:59.763Z,100374
2018-07-22T19:37:28.610Z,100382
2018-07-22T19:39:57.471Z,100373
2018-07-22T19:42:26.309Z,100387
2018-07-22T19:44:55.157Z,100387
2018-07-22T19:47:24.755Z,100391
2018-07-22T19:49:53.615Z,100392
2018-07-22T19:52:22.468Z,100399
2018-07-22T19:54:51.328Z,100398
2018-07-22T19:57:20.917Z,100397
2018-07-22T19:59:49.750Z,100392
2018-07-22T20:02:18.646Z,100389
2018-07-22T20:04:47.456Z,100396
2018-07-22T20:07:16.295Z,100392
2018-07-22T20:09:45.946Z,100396
2018-07-22T20:12:14.781Z,100399
2018-07-22T20:14:43.634Z,100401
2018-07-22T20:17:13.236Z,100407
2018-07-22T20:19:42.830Z,100413
2018-07-22T20:22:11.693Z,100417
2018-07-22T20:24:40.544Z,100408
2018-07-22T20:27:09.376Z,100411
2018-07-22T20:29:38.222Z,100411
2018-07-22T20:32:07.086Z,100408
2018-07-22T20:34:35.972Z,100408
2018-07-22T20:37:04.840Z,100402
2018-07-22T20:39:33.681Z,100408
2018-07-22T20:42:02.554Z,100401
2018-07-22T20:44:31.398Z,100401
2018-07-22T20:47:00.285Z,100399
2018-07-22T20:49:29.107Z,100407
2018-07-22T20:51:57.950Z,100409
2018-07-22T20:54:26.809Z,100408
2018-07-22T20:56:55.701Z,100414
2018-07-22T20:59:24.565Z,100410
2018-07-22T21:01:53.411Z,100417
2018-07-22T21:04:22.999Z,100413
2018-07-22T21:06:51.871Z,100420
2018-07-22T21:09:20.708Z,100428
2018-07-22T21:11:49.560Z,100410
2018-07-22T21:14:18.429Z,100414
2018-07-22T21:16:47.267Z,100424
2018-07-22T21:19:16.868Z,100418
2018-07-22T21:21:46.461Z,100434
2018-07-22T21:24:16.088Z,100429
2018-07-22T21:26:44.970Z,100422
2018-07-22T21:29:13.774Z,100419
2018-07-22T21:31:42.628Z,100418
2018-07-22T21:34:11.542Z,100427
2018-07-22T21:36:41.130Z,100433
2018-07-22T21:39:09.985Z,100432
2018-07-22T21:41:38.841Z,100439
2018-07-22T21:44:07.685Z,100435
2018-07-22T21:46:36.529Z,100439
2018-07-22T21:49:05.395Z,100436
2018-07-22T21:51:34.247Z,100444
2018-07-22T21:54:03.098Z,100442
2018-07-22T21:56:31.951Z,100440
2018-07-22T21:59:01.533Z,100442
2018-07-22T22:01:30.375Z,100445
2018-07-22T22:03:59.228Z,100446
2018-07-22T22:06:28.811Z,100447
2018-07-22T22:08:57.657Z,100451
2018-07-22T22:11:26.498Z,100450
2018-07-22T22:13:55.345Z,100448
2018-07-22T22:16:24.186Z,100443
2018-07-22T22:18:53.035Z,100446
2018-07-22T22:21:21.886Z,100444
2018-07-22T22:23:50.731Z,100450
2018-07-22T22:26:19.588Z,100453
2018-07-22T22:28:48.449Z,100450
2018-07-22T22:31:18.028Z,100450
2018-07-22T22:33:46.896Z,100452
2018-07-22T22:36:15.747Z,100451
2018-07-22T22:38:45.329Z,100452
2018-07-22T22:41:14.182Z,100447
2018-07-22T22:43:43.025Z,100454
2018-07-22T22:46:12.632Z,100456
2018-07-22T22:48:41.480Z,100455
2018-07-22T22:51:10.318Z,100455
2018-07-22T22:53:39.176Z,100445
2018-07-22T22:56:08.017Z,100451
2018-07-22T22:58:51.412Z,100443
2018-07-22T23:01:20.266Z,100446
2018-07-22T23:03:49.853Z,100451
2018-07-22T23:06:18.701Z,100442
2018-07-22T23:08:47.559Z,100438
2018-07-22T23:11:16.405Z,100444
2018-07-22T23:13:46.780Z,100441
2018-07-22T23:16:15.620Z,100437
2018-07-22T23:18:44.472Z,100443
2018-07-22T23:21:14.068Z,100452
2018-07-22T23:23:42.921Z,100451
2018-07-22T23:26:11.754Z,100453
2018-07-22T23:28:40.603Z,100452
2018-07-22T23:31:09.441Z,100448
2018-07-22T23:33:38.301Z,100455
2018-07-22T23:36:07.152Z,100460
2018-07-22T23:38:36.018Z,100455
2018-07-22T23:41:04.881Z,100457
2018-07-22T23:43:33.801Z,100456
2018-07-22T23:46:03.372Z,100449
2018-07-22T23:48:32.217Z,100454
2018-07-22T23:51:01.058Z,100454
2018-07-22T23:53:29.896Z,100457
2018-07-22T23:55:58.740Z,100448
2018-07-22T23:58:27.598Z,100451
